createdAt,value
2022-09-15T00:01:30.962Z,31.20
2022-09-15T00:03:59.213Z,31.20
2022-09-15T00:06:27.121Z,31.20
2022-09-15T00:08:56.564Z,31.30
2022-09-15T00:11:26.509Z,31.20
2022-09-15T00:13:57.942Z,31.20
2022-09-15T00:16:27.962Z,31.20
2022-09-15T00:18:56.414Z,31.10
2022-09-15T00:21:26.836Z,31.10
2022-09-15T00:23:57.090Z,31.20
2022-09-15T00:26:28.265Z,31.00
2022-09-15T00:28:58.122Z,31.10
2022-09-15T00:31:28.103Z,31.10
2022-09-15T00:33:58.305Z,31.10
2022-09-15T00:36:27.683Z,31.10
2022-09-15T00:38:57.558Z,30.80
2022-09-15T00:41:26.213Z,30.90
2022-09-15T00:43:58.261Z,31.00
2022-09-15T00:46:30.033Z,31.00
2022-09-15T00:49:04.736Z,30.90
2022-09-15T00:51:38.995Z,31.00
2022-09-15T00:54:14.415Z,31.10
2022-09-15T00:56:45.033Z,31.10
2022-09-15T00:59:17.837Z,31.10
2022-09-15T01:01:48.668Z,31.10
2022-09-15T01:04:17.514Z,31.20
2022-09-15T01:06:52.529Z,31.00
2022-09-15T01:09:37.185Z,31.00
2022-09-15T01:12:06.234Z,31.00
2022-09-15T01:14:34.553Z,30.80
2022-09-15T01:17:08.331Z,30.60
2022-09-15T01:19:59.378Z,30.30
2022-09-15T01:22:37.598Z,30.60
2022-09-15T01:25:15.831Z,30.80
2022-09-15T01:28:02.339Z,30.60
2022-09-15T01:30:36.892Z,30.50
2022-09-15T01:33:13.035Z,30.40
2022-09-15T01:36:02.297Z,30.10
2022-09-15T01:38:39.813Z,29.80
2022-09-15T01:41:15.424Z,30.00
2022-09-15T01:43:48.981Z,30.20
2022-09-15T01:46:20.453Z,30.30
2022-09-15T01:48:49.445Z,30.40
2022-09-15T01:51:18.633Z,30.60
2022-09-15T01:53:50.713Z,30.70
2022-09-15T01:56:18.885Z,30.80
2022-09-15T01:58:51.970Z,30.90
2022-09-15T02:01:29.709Z,30.60
2022-09-15T02:04:03.086Z,30.90
2022-09-15T02:06:39.329Z,30.80
2022-09-15T02:09:13.684Z,30.90
2022-09-15T02:11:52.158Z,31.10
2022-09-15T02:14:36.750Z,31.00
2022-09-15T02:17:08.313Z,31.10
2022-09-15T02:19:42.043Z,31.10
2022-09-15T02:22:18.871Z,31.10
2022-09-15T02:24:52.095Z,31.10
2022-09-15T02:27:24.081Z,31.20
2022-09-15T02:29:56.702Z,31.20
2022-09-15T02:32:28.529Z,31.20
2022-09-15T02:34:59.720Z,31.10
2022-09-15T02:37:28.858Z,31.10
2022-09-15T02:39:58.569Z,31.10
2022-09-15T02:42:27.842Z,31.20
2022-09-15T02:44:56.401Z,31.20
2022-09-15T02:47:28.336Z,31.20
2022-09-15T02:49:57.013Z,31.30
2022-09-15T02:52:25.368Z,31.20
2022-09-15T02:54:54.621Z,31.20
2022-09-15T02:57:24.825Z,31.20
2022-09-15T03:00:11.206Z,31.20
2022-09-15T03:02:43.455Z,31.20
2022-09-15T03:05:12.769Z,31.20
2022-09-15T03:07:41.160Z,31.20
2022-09-15T03:10:11.934Z,31.20
2022-09-15T03:12:40.905Z,31.20
2022-09-15T03:15:11.761Z,31.20
2022-09-15T03:17:43.273Z,31.20
2022-09-15T03:20:13.718Z,31.30
2022-09-15T03:22:44.058Z,31.30
2022-09-15T03:25:15.027Z,31.10
2022-09-15T03:27:43.604Z,31.10
2022-09-15T03:30:13.712Z,30.80
2022-09-15T03:32:44.355Z,31.00
2022-09-15T03:35:12.527Z,30.90
2022-09-15T03:37:40.476Z,31.00
2022-09-15T03:40:11.260Z,30.90
2022-09-15T03:42:41.243Z,30.90
2022-09-15T03:45:12.759Z,31.00
2022-09-15T03:47:40.726Z,31.00
2022-09-15T03:50:10.580Z,30.90
2022-09-15T03:52:38.598Z,31.00
2022-09-15T03:55:07.448Z,31.10
2022-09-15T03:57:35.764Z,30.90
2022-09-15T04:00:05.192Z,31.00
2022-09-15T04:02:33.122Z,31.10
2022-09-15T04:05:03.038Z,31.00
2022-09-15T04:07:32.554Z,30.80
2022-09-15T04:10:00.958Z,30.80
2022-09-15T04:12:32.131Z,30.80
2022-09-15T04:15:00.255Z,30.80
2022-09-15T04:17:28.316Z,30.70
2022-09-15T04:19:57.576Z,30.60
2022-09-15T04:22:26.043Z,30.50
2022-09-15T04:24:55.457Z,30.40
2022-09-15T04:27:24.379Z,30.50
2022-09-15T04:29:52.903Z,30.30
2022-09-15T04:32:21.999Z,30.20
2022-09-15T04:34:50.574Z,30.40
2022-09-15T04:37:18.900Z,30.30
2022-09-15T04:39:49.191Z,30.40
2022-09-15T04:42:20.574Z,30.20
2022-09-15T04:44:49.402Z,30.20
2022-09-15T04:47:17.464Z,30.10
2022-09-15T04:49:45.544Z,30.30
2022-09-15T04:52:13.525Z,30.20
2022-09-15T04:54:41.602Z,30.30
2022-09-15T04:57:10.320Z,30.40
2022-09-15T04:59:39.994Z,30.10
2022-09-15T05:02:08.007Z,30.30
2022-09-15T05:04:38.264Z,30.10
2022-09-15T05:07:06.332Z,29.80
2022-09-15T05:09:34.263Z,29.90
2022-09-15T05:12:04.221Z,30.00
2022-09-15T05:14:33.982Z,30.00
2022-09-15T05:17:03.539Z,29.90
2022-09-15T05:19:31.469Z,30.10
2022-09-15T05:21:59.412Z,30.10
2022-09-15T05:24:31.058Z,30.30
2022-09-15T05:26:58.964Z,30.70
2022-09-15T05:29:27.108Z,30.50
2022-09-15T05:31:55.193Z,30.50
2022-09-15T05:34:24.881Z,30.50
2022-09-15T05:36:52.862Z,30.60
2022-09-15T05:39:20.795Z,30.70
2022-09-15T05:41:50.433Z,30.20
2022-09-15T05:44:18.721Z,30.30
2022-09-15T05:46:46.751Z,29.90
2022-09-15T05:49:15.089Z,29.90
2022-09-15T05:51:44.352Z,29.60
2022-09-15T05:54:12.273Z,29.60
2022-09-15T05:56:40.180Z,29.60
2022-09-15T05:59:09.433Z,29.60
2022-09-15T06:01:39.433Z,29.90
2022-09-15T06:04:08.319Z,29.90
2022-09-15T06:06:39.715Z,30.10
2022-09-15T06:09:09.857Z,29.90
2022-09-15T06:11:39.065Z,30.10
2022-09-15T06:14:07.391Z,30.10
2022-09-15T06:16:36.567Z,30.40
2022-09-15T06:19:05.029Z,30.00
2022-09-15T06:21:33.973Z,30.00
2022-09-15T06:24:04.446Z,30.10
2022-09-15T06:26:34.793Z,29.90
2022-09-15T06:29:06.914Z,29.90
2022-09-15T06:31:36.559Z,29.90
2022-09-15T06:34:07.066Z,29.80
2022-09-15T06:36:38.788Z,29.80
2022-09-15T06:39:06.745Z,29.70
2022-09-15T06:41:58.846Z,29.70
2022-09-15T06:44:29.907Z,29.30
2022-09-15T06:46:57.854Z,29.80
2022-09-15T06:49:27.588Z,29.40
2022-09-15T06:52:02.802Z,29.10
2022-09-15T06:54:31.268Z,29.40
2022-09-15T06:57:00.518Z,29.10
2022-09-15T06:59:28.722Z,29.50
2022-09-15T07:01:57.524Z,29.60
2022-09-15T07:04:26.627Z,29.90
2022-09-15T07:06:54.574Z,29.60
2022-09-15T07:09:22.776Z,29.50
2022-09-15T07:11:51.929Z,29.00
2022-09-15T07:14:21.301Z,28.50
2022-09-15T07:16:49.504Z,28.60
2022-09-15T07:19:17.789Z,28.60
2022-09-15T07:21:45.751Z,28.40
2022-09-15T07:24:14.768Z,28.40
2022-09-15T07:26:43.350Z,27.70
2022-09-15T07:29:11.277Z,26.80
2022-09-15T07:31:40.882Z,26.20
2022-09-15T07:34:08.994Z,26.50
2022-09-15T07:36:39.297Z,26.80
2022-09-15T07:39:08.153Z,27.50
2022-09-15T07:41:37.292Z,27.40
2022-09-15T07:44:11.765Z,27.20
2022-09-15T07:46:43.075Z,27.60
2022-09-15T07:49:12.820Z,27.40
2022-09-15T07:51:41.162Z,27.90
2022-09-15T07:54:11.553Z,28.00
2022-09-15T07:56:39.489Z,27.90
2022-09-15T07:59:07.945Z,27.80
2022-09-15T08:01:38.579Z,28.00
2022-09-15T08:04:10.071Z,28.50
2022-09-15T08:06:38.979Z,28.50
2022-09-15T08:09:10.136Z,28.70
2022-09-15T08:11:39.862Z,28.90
2022-09-15T08:14:08.104Z,29.20
2022-09-15T08:16:36.388Z,29.30
2022-09-15T08:19:11.517Z,29.10
2022-09-15T08:21:41.698Z,29.60
2022-09-15T08:24:11.300Z,29.20
2022-09-15T08:26:42.378Z,29.00
2022-09-15T08:29:12.665Z,29.50
2022-09-15T08:31:40.623Z,29.50
2022-09-15T08:34:14.605Z,28.80
2022-09-15T08:36:42.551Z,29.00
2022-09-15T08:39:15.283Z,28.80
2022-09-15T08:41:45.570Z,29.40
2022-09-15T08:44:24.625Z,29.30
2022-09-15T08:47:02.417Z,29.80
2022-09-15T08:49:51.149Z,29.40
2022-09-15T08:52:24.142Z,30.10
2022-09-15T08:54:58.556Z,30.30
2022-09-15T08:57:27.269Z,30.20
2022-09-15T08:59:55.604Z,30.40
2022-09-15T09:02:52.241Z,30.80
2022-09-15T09:05:40.683Z,31.20
2022-09-15T09:08:42.274Z,30.90
2022-09-15T09:11:19.080Z,30.30
2022-09-15T09:13:54.872Z,30.30
2022-09-15T09:16:44.793Z,29.90
2022-09-15T09:19:35.946Z,30.10
2022-09-15T09:22:11.791Z,30.00
2022-09-15T09:24:44.990Z,29.90
2022-09-15T09:27:15.802Z,29.80
2022-09-15T09:29:49.565Z,30.00
2022-09-15T09:32:22.220Z,30.10
2022-09-15T09:35:00.685Z,30.00
2022-09-15T09:37:30.503Z,29.80
2022-09-15T09:39:58.494Z,30.10
2022-09-15T09:42:31.324Z,30.30
2022-09-15T09:44:59.467Z,30.20
2022-09-15T09:47:32.734Z,30.10
2022-09-15T09:50:04.988Z,29.60
2022-09-15T09:52:36.829Z,29.70
2022-09-15T09:55:21.998Z,29.70
2022-09-15T09:57:50.503Z,30.00
2022-09-15T10:00:33.647Z,30.10
2022-09-15T10:03:11.535Z,30.20
2022-09-15T10:05:41.070Z,30.30
2022-09-15T10:08:17.688Z,30.50
2022-09-15T10:10:53.123Z,30.30
2022-09-15T10:13:23.702Z,30.30
2022-09-15T10:15:55.638Z,30.40
2022-09-15T10:18:30.955Z,30.50
2022-09-15T10:21:04.554Z,30.40
2022-09-15T10:23:35.136Z,30.20
2022-09-15T10:26:33.345Z,30.40
2022-09-15T10:29:19.896Z,30.40
2022-09-15T10:31:49.499Z,30.20
2022-09-15T10:34:26.561Z,30.20
2022-09-15T10:37:02.245Z,30.20
2022-09-15T10:39:43.224Z,30.00
2022-09-15T10:42:18.907Z,30.00
2022-09-15T10:44:55.960Z,30.00
2022-09-15T10:47:34.425Z,30.00
2022-09-15T10:50:17.424Z,29.60
2022-09-15T10:53:01.125Z,29.50
2022-09-15T10:55:52.776Z,29.40
2022-09-15T10:58:45.623Z,29.50
2022-09-15T11:01:30.016Z,29.60
2022-09-15T11:04:17.870Z,30.00
2022-09-15T11:06:54.405Z,30.10
2022-09-15T11:09:27.361Z,30.00
2022-09-15T11:12:17.100Z,30.00
2022-09-15T11:15:05.542Z,30.20
2022-09-15T11:17:46.384Z,30.50
2022-09-15T11:20:33.629Z,30.40
2022-09-15T11:23:13.733Z,30.50
2022-09-15T11:25:45.476Z,30.60
2022-09-15T11:28:22.584Z,30.80
2022-09-15T11:30:56.548Z,30.80
2022-09-15T11:33:32.067Z,30.30
2022-09-15T11:36:07.807Z,30.10
2022-09-15T11:38:42.967Z,29.80
2022-09-15T11:41:21.393Z,30.00
2022-09-15T11:44:04.931Z,30.00
2022-09-15T11:46:41.943Z,30.00
2022-09-15T11:49:17.214Z,29.90
2022-09-15T11:51:56.276Z,30.10
2022-09-15T11:54:34.316Z,30.30
2022-09-15T11:57:13.943Z,30.10
2022-09-15T11:59:48.476Z,30.40
2022-09-15T12:02:24.625Z,30.20
2022-09-15T12:05:12.811Z,30.10
2022-09-15T12:07:47.765Z,30.00
2022-09-15T12:10:19.805Z,29.80
2022-09-15T12:12:51.486Z,30.00
2022-09-15T12:15:27.334Z,30.40
2022-09-15T12:18:06.547Z,30.40
2022-09-15T12:20:55.677Z,30.60
2022-09-15T12:23:32.663Z,30.30
2022-09-15T12:26:16.493Z,30.30
2022-09-15T12:28:58.413Z,30.40
2022-09-15T12:31:36.203Z,30.90
2022-09-15T12:34:07.476Z,30.90
2022-09-15T12:36:44.852Z,31.00
2022-09-15T12:39:30.460Z,31.10
2022-09-15T12:42:15.972Z,31.50
2022-09-15T12:44:49.040Z,31.40
2022-09-15T12:47:33.132Z,31.50
2022-09-15T12:50:09.286Z,31.70
2022-09-15T12:52:47.378Z,31.30
2022-09-15T12:55:21.027Z,31.30
2022-09-15T12:57:55.094Z,31.00
2022-09-15T13:00:34.698Z,30.60
2022-09-15T13:03:05.386Z,30.70
2022-09-15T13:06:08.635Z,31.00
2022-09-15T13:08:50.977Z,31.10
2022-09-15T13:11:29.515Z,31.40
2022-09-15T13:14:14.198Z,31.50
2022-09-15T13:16:50.530Z,31.20
2022-09-15T13:19:27.371Z,31.50
2022-09-15T13:22:02.219Z,31.50
2022-09-15T13:24:43.023Z,31.60
2022-09-15T13:27:13.147Z,31.60
2022-09-15T13:29:49.897Z,31.60
2022-09-15T13:32:31.675Z,31.30
2022-09-15T13:35:31.423Z,31.70
2022-09-15T13:38:39.554Z,31.50
2022-09-15T13:41:33.942Z,31.60
2022-09-15T13:44:33.904Z,31.70
2022-09-15T13:47:17.090Z,31.90
2022-09-15T13:49:53.313Z,31.70
2022-09-15T13:53:01.821Z,31.30
2022-09-15T13:55:34.493Z,31.30
2022-09-15T14:01:01.056Z,30.90
2022-09-15T14:03:38.754Z,30.90
2022-09-15T14:06:17.841Z,30.70
2022-09-15T14:08:51.011Z,31.10
2022-09-15T14:11:32.867Z,31.10
2022-09-15T14:14:01.443Z,31.20
2022-09-15T14:16:36.755Z,31.30
2022-09-15T14:19:33.376Z,31.20
2022-09-15T14:22:01.997Z,31.40
2022-09-15T14:24:34.035Z,31.40
2022-09-15T14:27:14.159Z,31.70
2022-09-15T14:29:43.166Z,31.60
2022-09-15T14:32:16.464Z,31.50
2022-09-15T14:37:24.315Z,31.80
2022-09-15T14:39:56.545Z,31.90
2022-09-15T14:42:30.603Z,32.10
2022-09-15T14:48:02.541Z,32.00
2022-09-15T14:50:33.845Z,31.60
2022-09-15T14:53:04.748Z,31.70
2022-09-15T14:55:38.279Z,31.60
2022-09-15T14:58:13.630Z,31.20
2022-09-15T15:00:54.387Z,31.40
2022-09-15T15:03:30.843Z,31.50
2022-09-15T15:06:25.337Z,31.50
2022-09-15T15:08:56.932Z,31.60
2022-09-15T15:11:27.939Z,31.80
2022-09-15T15:13:57.383Z,31.70
2022-09-15T15:16:29.521Z,31.80
2022-09-15T15:19:01.948Z,31.60
2022-09-15T15:21:40.294Z,31.50
2022-09-15T15:24:29.252Z,31.60
2022-09-15T15:26:57.396Z,31.60
2022-09-15T15:29:41.413Z,31.50
2022-09-15T15:32:15.472Z,31.80
2022-09-15T15:34:50.587Z,31.70
2022-09-15T15:37:27.131Z,31.70
2022-09-15T15:39:57.368Z,31.70
2022-09-15T15:42:32.157Z,31.80
2022-09-15T15:45:03.355Z,31.50
2022-09-15T15:47:34.715Z,31.60
2022-09-15T15:50:14.454Z,31.70
2022-09-15T15:52:53.900Z,31.70
2022-09-15T15:55:24.146Z,31.70
2022-09-15T15:57:57.723Z,31.80
2022-09-15T16:00:36.698Z,31.20
2022-09-15T16:03:06.483Z,31.20
2022-09-15T16:05:37.278Z,31.20
2022-09-15T16:08:14.632Z,31.10
2022-09-15T16:10:46.045Z,31.20
2022-09-15T16:13:16.274Z,31.20
2022-09-15T16:15:46.824Z,31.30
2022-09-15T16:18:15.471Z,31.10
2022-09-15T16:20:46.381Z,31.20
2022-09-15T16:23:20.319Z,31.10
2022-09-15T16:25:52.167Z,31.10
2022-09-15T16:28:22.418Z,30.80
2022-09-15T16:30:51.425Z,30.50
2022-09-15T16:33:20.751Z,30.40
2022-09-15T16:35:53.211Z,30.00
2022-09-15T16:38:25.976Z,29.60
2022-09-15T16:40:57.345Z,29.20
2022-09-15T16:43:25.623Z,28.80
2022-09-15T16:45:55.352Z,29.00
2022-09-15T16:48:24.293Z,28.70
2022-09-15T16:51:19.525Z,28.50
2022-09-15T16:53:42.556Z,28.40
2022-09-15T16:56:13.421Z,27.70
2022-09-15T16:58:44.698Z,27.50
2022-09-15T17:01:19.717Z,27.90
2022-09-15T17:03:48.330Z,27.80
2022-09-15T17:06:18.644Z,28.00
2022-09-15T17:08:47.983Z,28.10
2022-09-15T17:11:17.934Z,27.90
2022-09-15T17:13:48.373Z,27.20
2022-09-15T17:16:19.642Z,27.00
2022-09-15T17:18:48.217Z,27.20
2022-09-15T17:21:18.153Z,27.40
2022-09-15T17:23:52.056Z,27.20
2022-09-15T17:26:21.803Z,27.50
2022-09-15T17:28:52.412Z,27.40
2022-09-15T17:31:23.813Z,27.10
2022-09-15T17:33:53.425Z,27.30
2022-09-15T17:36:21.399Z,27.30
2022-09-15T17:38:50.859Z,27.30
2022-09-15T17:41:21.460Z,27.00
2022-09-15T17:43:49.540Z,27.10
2022-09-15T17:46:18.020Z,27.30
2022-09-15T17:48:45.983Z,27.00
2022-09-15T17:51:18.078Z,26.80
2022-09-15T17:53:50.200Z,26.90
2022-09-15T17:56:19.519Z,26.80
2022-09-15T17:58:47.493Z,26.60
2022-09-15T18:01:16.299Z,26.70
2022-09-15T18:03:46.796Z,26.60
2022-09-15T18:06:14.884Z,26.60
2022-09-15T18:08:43.032Z,26.80
2022-09-15T18:11:15.355Z,26.40
2022-09-15T18:13:45.673Z,26.80
2022-09-15T18:16:15.391Z,26.90
2022-09-15T18:18:44.861Z,27.10
2022-09-15T18:21:25.704Z,26.90
2022-09-15T18:23:55.532Z,27.20
2022-09-15T18:26:26.209Z,27.30
2022-09-15T18:28:57.265Z,27.60
2022-09-15T18:31:25.531Z,27.60
2022-09-15T18:33:58.343Z,27.70
2022-09-15T18:36:28.489Z,27.10
2022-09-15T18:38:58.327Z,27.60
2022-09-15T18:41:27.746Z,27.80
2022-09-15T18:43:57.115Z,27.90
2022-09-15T18:46:25.933Z,28.00
2022-09-15T18:48:59.415Z,28.10
2022-09-15T18:51:50.433Z,27.90
2022-09-15T18:54:19.526Z,27.90
2022-09-15T18:56:47.782Z,28.30
2022-09-15T18:59:17.889Z,28.50
2022-09-15T19:01:46.081Z,28.40
2022-09-15T19:04:14.905Z,28.40
2022-09-15T19:06:46.462Z,28.30
2022-09-15T19:09:14.650Z,28.30
2022-09-15T19:11:42.715Z,28.20
2022-09-15T19:14:12.697Z,27.90
2022-09-15T19:16:56.947Z,27.80
2022-09-15T19:19:27.533Z,27.70
2022-09-15T19:21:55.775Z,27.80
2022-09-15T19:24:25.286Z,27.60
2022-09-15T19:26:53.199Z,27.40
2022-09-15T19:29:21.798Z,27.10
2022-09-15T19:31:53.040Z,27.50
2022-09-15T19:34:22.816Z,27.50
2022-09-15T19:36:53.028Z,27.80
2022-09-15T19:39:21.715Z,27.80
2022-09-15T19:41:50.709Z,28.00
2022-09-15T19:44:21.291Z,28.10
2022-09-15T19:46:52.664Z,28.20
2022-09-15T19:49:20.782Z,28.40
2022-09-15T19:51:52.916Z,28.40
2022-09-15T19:54:21.312Z,27.90
2022-09-15T19:56:51.081Z,28.10
2022-09-15T19:59:19.915Z,28.10
2022-09-15T20:01:48.194Z,28.20
2022-09-15T20:04:18.327Z,28.50
2022-09-15T20:06:48.893Z,28.90
2022-09-15T20:09:17.645Z,28.50
2022-09-15T20:11:48.782Z,28.40
2022-09-15T20:14:17.935Z,28.20
2022-09-15T20:16:46.143Z,28.00
2022-09-15T20:19:14.402Z,27.90
2022-09-15T20:21:51.713Z,27.70
2022-09-15T20:24:21.221Z,28.10
2022-09-15T20:26:49.566Z,28.00
2022-09-15T20:29:18.420Z,27.80
2022-09-15T20:31:47.257Z,27.80
2022-09-15T20:34:19.088Z,27.50
2022-09-15T20:36:48.882Z,27.90
2022-09-15T20:39:20.295Z,27.90
2022-09-15T20:41:50.165Z,27.90
2022-09-15T20:44:20.322Z,27.90
2022-09-15T20:46:48.667Z,27.80
2022-09-15T20:49:16.923Z,27.50
2022-09-15T20:51:46.008Z,27.40
2022-09-15T20:54:17.182Z,27.70
2022-09-15T20:56:45.307Z,27.50
2022-09-15T20:59:15.370Z,27.40
2022-09-15T21:01:44.085Z,27.40
2022-09-15T21:04:14.094Z,27.40
2022-09-15T21:06:42.343Z,27.10
2022-09-15T21:09:10.419Z,27.20
2022-09-15T21:11:43.030Z,27.50
2022-09-15T21:14:13.846Z,27.10
2022-09-15T21:16:42.733Z,27.70
2022-09-15T21:19:13.405Z,27.70
2022-09-15T21:21:42.938Z,27.70
2022-09-15T21:24:13.827Z,27.80
2022-09-15T21:26:57.419Z,27.80
2022-09-15T21:29:26.628Z,27.90
2022-09-15T21:31:56.685Z,27.80
2022-09-15T21:34:25.662Z,28.00
2022-09-15T21:36:55.577Z,27.90
2022-09-15T21:39:23.868Z,27.80
2022-09-15T21:41:54.627Z,27.80
2022-09-15T21:44:23.192Z,27.60
2022-09-15T21:46:52.630Z,27.50
2022-09-15T21:49:24.218Z,27.60
2022-09-15T21:51:52.541Z,27.60
2022-09-15T21:54:20.826Z,27.90
2022-09-15T21:56:48.893Z,27.70
2022-09-15T21:59:19.056Z,27.80
2022-09-15T22:01:47.335Z,27.80
2022-09-15T22:04:15.771Z,27.80
2022-09-15T22:06:44.750Z,27.60
2022-09-15T22:09:19.141Z,27.70
2022-09-15T22:11:47.688Z,27.50
2022-09-15T22:14:16.274Z,27.20
2022-09-15T22:16:45.776Z,27.50
2022-09-15T22:19:14.422Z,27.10
2022-09-15T22:21:42.935Z,26.90
2022-09-15T22:24:12.600Z,27.00
2022-09-15T22:26:42.103Z,27.10
2022-09-15T22:29:11.352Z,26.80
2022-09-15T22:31:40.862Z,27.10
2022-09-15T22:34:10.406Z,27.10
2022-09-15T22:36:38.873Z,27.00
2022-09-15T22:39:07.295Z,26.80
2022-09-15T22:41:37.247Z,27.20
2022-09-15T22:44:06.501Z,27.10
2022-09-15T22:46:35.018Z,26.80
2022-09-15T22:49:03.658Z,27.10
2022-09-15T22:51:33.312Z,26.90
2022-09-15T22:54:03.366Z,26.80
2022-09-15T22:56:31.454Z,26.80
2022-09-15T22:59:00.305Z,26.40
2022-09-15T23:01:30.596Z,26.50
2022-09-15T23:04:01.502Z,26.70
2022-09-15T23:06:33.522Z,27.10
2022-09-15T23:09:06.278Z,27.30
2022-09-15T23:11:34.928Z,27.70
2022-09-15T23:14:03.315Z,27.90
2022-09-15T23:16:32.260Z,27.90
2022-09-15T23:19:00.614Z,27.70
2022-09-15T23:21:28.828Z,27.70
2022-09-15T23:23:59.169Z,27.60
2022-09-15T23:26:27.685Z,27.50
2022-09-15T23:28:56.200Z,27.60
2022-09-15T23:31:24.747Z,27.60
2022-09-15T23:33:53.033Z,27.80
2022-09-15T23:36:22.870Z,27.40
2022-09-15T23:38:53.659Z,27.60
2022-09-15T23:41:23.535Z,27.40
2022-09-15T23:43:51.950Z,27.50
2022-09-15T23:46:19.956Z,27.40
2022-09-15T23:48:48.864Z,27.10
2022-09-15T23:51:17.086Z,27.00
2022-09-15T23:53:46.388Z,26.90
2022-09-15T23:56:14.730Z,26.80
2022-09-15T23:58:43.982Z,27.00
